General Viamonte, Argentina
Current Conditions -  °F | °C
As of 2:00 PM on Friday 31 Oct 2014 (Local Time) from SAOC Reporting Station
Broken Clouds Broken Clouds  
Wind Chill: 16°   Ceiling: 10000
Heat Index: 16°   Visibility: 6mi
Dew Point:   Wind: 12mph
Humidity: 52%   Direction: 180°S
Pressure: 30"   Gusts: NA
Location:  33.81°S, 62.97°W
Report Text: SAOC 311700Z 18010KT 9999 FEW020 BKN10016/06 Q1016
Loading
Personal Weather Stations






























Interactive Weather Map
Tropical Storm Tracking
New forecast layout! Learn more

10-Day Weather Forecast

Advertisements
Track Severe Weather on mobile